Nixon, Mississippi
Current Conditions -  °F | °C
As of 6:53 PM on Wednesday 17 Dec 2014 (Local Time) from KTUP Reporting Station
Clear Clear  
Wind Chill: 38°   Ceiling: Unl
Heat Index: 42°   Visibility: 10mi
Dew Point: 35°   Wind: 6mph
Humidity: 76%   Direction: 50°NE
Pressure: 30.25"   Gusts: NA
Location:  34.1762°N, 88.9612°W
Report Text: KTUP 180053Z 05005KT 10SM CLR 06/02 A3025 RMK AO2 SLP244 T00560017
Loading
Personal Weather Stations






























Interactive Weather Map New forecast layout! Learn more

10-Day Weather Forecast

Advertisements
Track Severe Weather on mobile